createdAt,value
2023-03-31T00:05:11.288Z,3.22
2023-03-31T00:07:38.931Z,3.50
2023-03-31T00:10:17.290Z,2.97
2023-03-31T00:12:46.709Z,3.83
2023-03-31T00:15:14.740Z,3.13
2023-03-31T00:17:43.764Z,3.20
2023-03-31T00:20:12.699Z,3.08
2023-03-31T00:22:48.489Z,2.47
2023-03-31T00:25:17.422Z,3.53
2023-03-31T00:27:45.793Z,3.53
2023-03-31T00:30:14.855Z,3.03
2023-03-31T00:32:42.957Z,3.33
2023-03-31T00:35:10.701Z,3.10
2023-03-31T00:37:38.924Z,3.10
2023-03-31T00:40:10.593Z,2.50
2023-03-31T00:42:43.143Z,3.10
2023-03-31T00:45:18.471Z,3.30
2023-03-31T00:47:57.903Z,2.85
2023-03-31T00:50:29.284Z,3.35
2023-03-31T00:52:59.700Z,3.30
2023-03-31T00:55:31.893Z,2.55
2023-03-31T00:58:02.363Z,3.50
2023-03-31T01:00:31.019Z,2.58
2023-03-31T01:03:03.977Z,3.13
2023-03-31T01:05:45.245Z,2.95
2023-03-31T01:08:13.734Z,3.92
2023-03-31T01:10:56.033Z,2.70
2023-03-31T01:13:24.924Z,3.30
2023-03-31T01:15:55.240Z,3.08
2023-03-31T01:18:24.129Z,2.60
2023-03-31T01:20:58.621Z,2.80
2023-03-31T01:23:55.190Z,3.33
2023-03-31T01:26:23.684Z,2.47
2023-03-31T01:29:00.413Z,3.85
2023-03-31T01:31:34.330Z,3.03
2023-03-31T01:34:08.276Z,3.05
2023-03-31T01:36:49.610Z,3.75
2023-03-31T01:39:37.027Z,2.85
2023-03-31T01:42:06.351Z,2.67
2023-03-31T01:44:53.237Z,3.20
2023-03-31T01:47:26.157Z,3.63
2023-03-31T01:49:54.772Z,3.58
2023-03-31T01:52:25.213Z,3.47
2023-03-31T01:57:24.860Z,3.00
2023-03-31T02:00:19.046Z,3.78
2023-03-31T02:03:05.365Z,2.92
2023-03-31T02:05:47.498Z,3.08
2023-03-31T02:08:17.893Z,2.67
2023-03-31T02:10:46.600Z,3.15
2023-03-31T02:13:16.505Z,3.10
2023-03-31T02:15:47.577Z,3.67
2023-03-31T02:18:19.117Z,2.70
2023-03-31T02:20:49.178Z,3.25
2023-03-31T02:23:18.199Z,2.97
2023-03-31T02:25:49.591Z,2.80
2023-03-31T02:28:20.837Z,3.40
2023-03-31T02:31:01.677Z,2.60
2023-03-31T02:35:59.094Z,2.78
2023-03-31T02:38:27.915Z,2.25
2023-03-31T02:40:55.713Z,2.13
2023-03-31T02:43:26.916Z,2.95
2023-03-31T02:45:56.588Z,2.38
2023-03-31T02:48:37.291Z,2.35
2023-03-31T02:53:36.976Z,2.47
2023-03-31T02:56:07.936Z,2.58
2023-03-31T02:58:42.694Z,2.83
2023-03-31T03:01:25.002Z,2.90
2023-03-31T03:03:59.468Z,2.47
2023-03-31T03:06:39.997Z,2.92
2023-03-31T03:09:49.177Z,2.92
2023-03-31T03:12:26.549Z,2.83
2023-03-31T03:15:09.992Z,3.53
2023-03-31T03:17:46.012Z,3.38
2023-03-31T03:20:14.293Z,3.15
2023-03-31T03:22:43.027Z,3.55
2023-03-31T03:25:12.838Z,2.97
2023-03-31T03:27:41.061Z,3.25
2023-03-31T03:30:10.733Z,3.53
2023-03-31T03:32:38.979Z,3.42
2023-03-31T03:35:07.754Z,2.97
2023-03-31T03:37:35.622Z,3.70
2023-03-31T03:40:04.027Z,3.60
2023-03-31T03:42:34.009Z,3.17
2023-03-31T03:45:01.867Z,3.72
2023-03-31T03:47:31.614Z,2.83
2023-03-31T03:49:59.720Z,3.38
2023-03-31T03:52:27.677Z,3.50
2023-03-31T03:54:56.084Z,3.85
2023-03-31T03:57:27.389Z,4.13
2023-03-31T03:59:57.954Z,2.97
2023-03-31T04:02:28.970Z,3.65
2023-03-31T04:04:58.280Z,3.88
2023-03-31T04:07:25.946Z,3.10
2023-03-31T04:09:57.042Z,3.67
2023-03-31T04:12:27.835Z,3.63
2023-03-31T04:14:56.101Z,3.53
2023-03-31T04:17:33.297Z,3.63
2023-03-31T04:20:10.282Z,3.88
2023-03-31T04:22:41.781Z,3.17
2023-03-31T04:25:16.816Z,3.10
2023-03-31T04:27:47.009Z,3.70
2023-03-31T04:30:25.714Z,3.28
2023-03-31T04:32:55.593Z,3.72
2023-03-31T04:35:26.077Z,3.00
2023-03-31T04:37:59.358Z,3.25
2023-03-31T04:40:27.325Z,3.03
2023-03-31T04:42:58.029Z,3.60
2023-03-31T04:45:26.938Z,3.22
2023-03-31T04:47:57.775Z,3.20
2023-03-31T04:50:26.092Z,3.22
2023-03-31T04:52:55.436Z,3.35
2023-03-31T04:55:23.678Z,2.63
2023-03-31T04:57:53.227Z,3.03
2023-03-31T05:00:21.572Z,2.83
2023-03-31T05:02:49.344Z,3.30
2023-03-31T05:05:17.240Z,2.97
2023-03-31T05:07:45.318Z,2.80
2023-03-31T05:10:13.065Z,3.38
2023-03-31T05:12:40.805Z,3.50
2023-03-31T05:15:09.260Z,3.22
2023-03-31T05:17:37.062Z,2.92
2023-03-31T05:20:06.996Z,2.85
2023-03-31T05:22:37.662Z,3.42
2023-03-31T05:25:06.834Z,3.10
2023-03-31T05:27:35.759Z,3.45
2023-03-31T05:30:04.373Z,3.53
2023-03-31T05:32:32.177Z,3.47
2023-03-31T05:35:00.294Z,3.88
2023-03-31T05:37:29.354Z,3.20
2023-03-31T05:39:57.402Z,3.58
2023-03-31T05:42:25.693Z,3.17
2023-03-31T05:44:57.965Z,3.47
2023-03-31T05:47:27.430Z,3.22
2023-03-31T05:50:08.043Z,3.05
2023-03-31T05:52:37.164Z,3.58
2023-03-31T05:55:06.429Z,2.97
2023-03-31T05:57:34.162Z,3.40
2023-03-31T06:00:02.261Z,3.50
2023-03-31T06:02:32.144Z,3.28
2023-03-31T06:05:00.312Z,2.42
2023-03-31T06:07:27.938Z,3.13
2023-03-31T06:09:55.922Z,2.47
2023-03-31T06:12:26.845Z,1.88
2023-03-31T06:14:55.414Z,1.52
2023-03-31T06:17:24.693Z,1.70
2023-03-31T06:19:55.322Z,2.35
2023-03-31T06:22:30.497Z,2.13
2023-03-31T06:25:02.375Z,1.58
2023-03-31T06:27:31.530Z,1.63
2023-03-31T06:29:59.737Z,3.00
2023-03-31T06:32:27.771Z,1.38
2023-03-31T06:34:56.147Z,2.10
2023-03-31T06:37:25.435Z,2.22
2023-03-31T06:39:53.676Z,1.90
2023-03-31T06:42:21.473Z,2.78
2023-03-31T06:44:49.334Z,2.58
2023-03-31T06:47:17.271Z,2.00
2023-03-31T06:49:45.795Z,3.00
2023-03-31T06:52:14.896Z,2.72
2023-03-31T06:54:43.395Z,2.35
2023-03-31T06:57:11.266Z,2.33
2023-03-31T06:59:39.181Z,2.63
2023-03-31T07:02:08.335Z,2.97
2023-03-31T07:04:36.044Z,2.47
2023-03-31T07:07:03.879Z,2.35
2023-03-31T07:09:31.669Z,2.20
2023-03-31T07:11:59.530Z,2.72
2023-03-31T07:14:27.559Z,2.53
2023-03-31T07:16:56.284Z,2.40
2023-03-31T07:19:26.371Z,2.78
2023-03-31T07:21:56.825Z,2.70
2023-03-31T07:24:27.260Z,2.72
2023-03-31T07:26:56.155Z,2.38
2023-03-31T07:29:28.070Z,2.47
2023-03-31T07:31:56.613Z,1.90
2023-03-31T07:34:26.068Z,2.65
2023-03-31T07:36:56.493Z,1.92
2023-03-31T07:39:25.853Z,1.88
2023-03-31T07:41:56.733Z,1.85
2023-03-31T07:44:25.687Z,2.00
2023-03-31T07:46:56.451Z,1.77
2023-03-31T07:49:24.837Z,1.60
2023-03-31T07:51:53.873Z,1.70
2023-03-31T07:54:21.830Z,2.38
2023-03-31T07:56:49.444Z,2.20
2023-03-31T07:59:17.429Z,2.70
2023-03-31T08:01:46.978Z,2.75
2023-03-31T08:04:15.724Z,2.67
2023-03-31T08:06:43.332Z,2.60
2023-03-31T08:09:11.288Z,2.85
2023-03-31T08:11:39.671Z,3.05
2023-03-31T08:14:07.397Z,3.00
2023-03-31T08:16:35.381Z,3.38
2023-03-31T08:19:03.396Z,3.97
2023-03-31T08:21:32.427Z,3.10
2023-03-31T08:24:00.497Z,3.33
2023-03-31T08:26:28.528Z,3.30
2023-03-31T08:28:59.322Z,4.15
2023-03-31T08:31:29.427Z,3.33
2023-03-31T08:33:57.580Z,3.45
2023-03-31T08:36:26.288Z,3.15
2023-03-31T08:38:57.613Z,3.20
2023-03-31T08:41:39.942Z,3.67
2023-03-31T08:44:26.853Z,3.33
2023-03-31T08:46:57.579Z,3.35
2023-03-31T08:49:30.593Z,3.55
2023-03-31T08:52:03.904Z,4.28
2023-03-31T08:54:40.736Z,3.55
2023-03-31T08:57:25.010Z,3.83
2023-03-31T08:59:59.916Z,5.15
2023-03-31T09:02:42.484Z,4.28
2023-03-31T09:05:32.186Z,4.38
2023-03-31T09:08:06.638Z,4.68
2023-03-31T09:10:37.492Z,5.28
2023-03-31T09:13:24.369Z,4.28
2023-03-31T09:16:06.121Z,4.97
2023-03-31T09:18:38.576Z,3.95
2023-03-31T09:21:26.252Z,4.05
2023-03-31T09:24:06.803Z,4.05
2023-03-31T09:26:35.019Z,4.80
2023-03-31T09:29:04.950Z,4.43
2023-03-31T09:31:32.857Z,4.10
2023-03-31T09:34:11.491Z,4.45
2023-03-31T09:36:39.173Z,3.92
2023-03-31T09:39:07.376Z,3.30
2023-03-31T09:41:34.976Z,3.95
2023-03-31T09:44:03.129Z,3.53
2023-03-31T09:46:39.464Z,4.18
2023-03-31T09:49:18.822Z,4.25
2023-03-31T09:51:47.865Z,4.05
2023-03-31T09:54:48.138Z,4.80
2023-03-31T09:57:27.059Z,3.67
2023-03-31T10:00:05.487Z,3.38
2023-03-31T10:02:41.860Z,4.97
2023-03-31T10:05:28.349Z,3.50
2023-03-31T10:08:13.354Z,3.47
2023-03-31T10:10:45.988Z,3.40
2023-03-31T10:13:16.015Z,3.53
2023-03-31T10:15:44.357Z,3.25
2023-03-31T10:18:30.525Z,3.63
2023-03-31T10:20:59.514Z,4.05
2023-03-31T10:23:33.073Z,3.03
2023-03-31T10:26:01.830Z,2.90
2023-03-31T10:28:37.700Z,3.03
2023-03-31T10:31:06.501Z,3.25
2023-03-31T10:33:35.333Z,3.97
2023-03-31T10:36:09.314Z,3.10
2023-03-31T10:38:40.684Z,3.55
2023-03-31T10:41:08.954Z,3.10
2023-03-31T10:43:41.857Z,3.17
2023-03-31T10:46:10.901Z,3.50
2023-03-31T10:48:39.992Z,3.90
2023-03-31T10:51:14.964Z,3.63
2023-03-31T10:53:46.766Z,3.05
2023-03-31T10:56:36.433Z,2.75
2023-03-31T10:59:23.702Z,2.55
2023-03-31T11:02:14.992Z,3.22
2023-03-31T11:04:50.637Z,2.45
2023-03-31T11:07:27.743Z,3.13
2023-03-31T11:10:04.409Z,2.72
2023-03-31T11:12:38.501Z,2.60
2023-03-31T11:15:10.388Z,3.95
2023-03-31T11:18:01.697Z,3.25
2023-03-31T11:20:38.065Z,2.92
2023-03-31T11:23:16.010Z,2.58
2023-03-31T11:25:48.342Z,2.33
2023-03-31T11:28:20.451Z,2.03
2023-03-31T11:30:54.960Z,2.50
2023-03-31T11:33:55.425Z,2.80
2023-03-31T11:36:42.136Z,2.80
2023-03-31T11:39:29.120Z,3.08
2023-03-31T11:41:59.413Z,3.38
2023-03-31T11:44:29.358Z,2.80
2023-03-31T11:47:03.093Z,2.65
2023-03-31T11:49:38.603Z,3.03
2023-03-31T11:52:10.191Z,2.38
2023-03-31T11:55:11.311Z,2.55
2023-03-31T11:58:05.899Z,2.88
2023-03-31T12:00:43.831Z,2.88
2023-03-31T12:03:17.480Z,2.90
2023-03-31T12:05:55.935Z,2.33
2023-03-31T12:08:24.912Z,2.70
2023-03-31T12:10:55.302Z,2.38
2023-03-31T12:13:33.139Z,2.45
2023-03-31T12:16:13.262Z,2.60
2023-03-31T12:19:01.578Z,3.10
2023-03-31T12:21:30.560Z,2.88
2023-03-31T12:23:58.340Z,3.03
2023-03-31T12:26:36.528Z,2.63
2023-03-31T12:29:07.272Z,3.55
2023-03-31T12:31:40.862Z,2.90
2023-03-31T12:34:13.501Z,3.00
2023-03-31T12:36:58.063Z,3.08
2023-03-31T12:39:37.123Z,2.58
2023-03-31T12:42:04.965Z,2.08
2023-03-31T12:44:44.948Z,2.05
2023-03-31T12:47:20.250Z,1.80
2023-03-31T12:49:57.372Z,1.50
2023-03-31T12:52:43.657Z,1.85
2023-03-31T12:55:38.851Z,2.08
2023-03-31T12:58:35.191Z,1.73
2023-03-31T13:01:16.334Z,1.85
2023-03-31T13:03:47.449Z,2.42
2023-03-31T13:06:30.672Z,1.10
2023-03-31T13:08:59.515Z,1.67
2023-03-31T13:11:36.912Z,2.28
2023-03-31T13:14:15.450Z,1.98
2023-03-31T13:16:50.289Z,2.05
2023-03-31T13:19:41.188Z,2.05
2023-03-31T13:22:29.033Z,1.90
2023-03-31T13:25:16.725Z,2.30
2023-03-31T13:27:55.787Z,1.90
2023-03-31T13:30:43.515Z,1.75
2023-03-31T13:33:11.282Z,1.90
2023-03-31T13:35:41.329Z,2.58
2023-03-31T13:38:28.001Z,2.17
2023-03-31T13:40:56.082Z,1.90
2023-03-31T13:43:47.376Z,2.50
2023-03-31T13:46:34.832Z,3.00
2023-03-31T13:49:16.878Z,1.92
2023-03-31T13:52:03.733Z,2.30
2023-03-31T13:54:50.213Z,2.42
2023-03-31T13:57:45.432Z,2.78
2023-03-31T14:00:32.646Z,1.80
2023-03-31T14:03:07.852Z,1.67
2023-03-31T14:05:44.825Z,2.50
2023-03-31T14:08:15.829Z,1.88
2023-03-31T14:10:44.838Z,1.52
2023-03-31T14:13:16.375Z,1.63
2023-03-31T14:15:51.100Z,1.60
2023-03-31T14:18:26.796Z,1.33
2023-03-31T14:21:18.068Z,1.48
2023-03-31T14:23:56.448Z,1.25
2023-03-31T14:26:33.605Z,1.52
2023-03-31T14:29:04.804Z,0.88
2023-03-31T14:31:36.254Z,1.27
2023-03-31T14:34:08.707Z,1.20
2023-03-31T14:36:48.024Z,1.20
2023-03-31T14:39:25.322Z,1.30
2023-03-31T14:41:55.681Z,1.20
2023-03-31T14:44:27.886Z,1.52
2023-03-31T14:46:58.634Z,1.88
2023-03-31T14:49:39.886Z,1.33
2023-03-31T14:52:24.802Z,1.60
2023-03-31T14:54:54.960Z,1.55
2023-03-31T14:59:55.827Z,1.60
2023-03-31T15:02:34.949Z,1.88
2023-03-31T15:05:07.877Z,1.38
2023-03-31T15:07:38.343Z,1.85
2023-03-31T15:10:08.966Z,1.70
2023-03-31T15:12:38.550Z,1.77
2023-03-31T15:15:07.357Z,1.90
2023-03-31T15:17:40.339Z,1.50
2023-03-31T15:20:44.089Z,1.48
2023-03-31T15:23:25.099Z,1.30
2023-03-31T15:25:55.887Z,1.60
2023-03-31T15:28:24.574Z,1.30
2023-03-31T15:31:07.142Z,1.08
2023-03-31T15:33:42.090Z,1.10
2023-03-31T15:36:12.031Z,0.95
2023-03-31T15:38:40.494Z,1.23
2023-03-31T15:44:08.044Z,0.98
2023-03-31T15:46:47.169Z,0.80
2023-03-31T15:49:22.010Z,0.70
2023-03-31T15:51:57.060Z,0.70
2023-03-31T15:54:33.640Z,0.52
2023-03-31T15:57:03.046Z,0.52
2023-03-31T15:59:41.689Z,0.68
2023-03-31T16:02:47.317Z,0.47
2023-03-31T16:08:39.355Z,0.57
2023-03-31T16:11:13.714Z,0.73
2023-03-31T16:13:46.465Z,0.50
2023-03-31T16:16:18.896Z,0.60
2023-03-31T16:18:50.476Z,0.55
2023-03-31T16:21:29.716Z,0.60
2023-03-31T16:23:59.499Z,0.60
2023-03-31T16:26:28.461Z,0.40
2023-03-31T16:28:58.511Z,0.75
2023-03-31T16:31:36.384Z,0.60
2023-03-31T16:34:07.690Z,0.75
2023-03-31T16:36:36.021Z,0.90
2023-03-31T16:39:09.483Z,0.60
2023-03-31T16:41:38.372Z,0.60
2023-03-31T16:44:06.569Z,1.25
2023-03-31T16:46:34.973Z,1.05
2023-03-31T16:49:05.707Z,0.88
2023-03-31T16:51:33.662Z,0.50
2023-03-31T16:54:01.673Z,0.70
2023-03-31T16:56:29.220Z,0.75
2023-03-31T16:58:58.978Z,0.60
2023-03-31T17:01:27.373Z,0.80
2023-03-31T17:03:56.299Z,0.70
2023-03-31T17:06:28.159Z,1.15
2023-03-31T17:08:56.438Z,0.90
2023-03-31T17:11:25.063Z,1.15
2023-03-31T17:13:56.248Z,0.70
2023-03-31T17:16:36.374Z,0.77
2023-03-31T17:19:12.833Z,0.80
2023-03-31T17:21:40.811Z,0.95
2023-03-31T17:24:08.643Z,0.80
2023-03-31T17:26:37.850Z,0.85
2023-03-31T17:29:05.960Z,0.70
2023-03-31T17:31:33.720Z,0.90
2023-03-31T17:34:03.345Z,1.15
2023-03-31T17:36:31.395Z,0.80
2023-03-31T17:39:00.336Z,1.00
2023-03-31T17:41:33.911Z,0.88
2023-03-31T17:44:01.680Z,1.00
2023-03-31T17:46:34.805Z,0.88
2023-03-31T17:49:03.613Z,0.95
2023-03-31T17:51:34.784Z,1.00
2023-03-31T17:54:05.869Z,1.23
2023-03-31T17:56:33.580Z,0.95
2023-03-31T17:59:01.976Z,1.30
2023-03-31T18:01:33.672Z,1.10
2023-03-31T18:07:08.655Z,1.05
2023-03-31T18:09:36.871Z,2.42
2023-03-31T18:12:05.376Z,1.20
2023-03-31T18:14:33.499Z,1.60
2023-03-31T18:17:02.669Z,1.40
2023-03-31T18:19:31.310Z,1.38
2023-03-31T18:21:59.133Z,1.20
2023-03-31T18:24:28.546Z,1.42
2023-03-31T18:26:57.045Z,1.27
2023-03-31T18:29:25.200Z,1.40
2023-03-31T18:31:56.122Z,1.20
2023-03-31T18:34:26.991Z,1.67
2023-03-31T18:37:00.055Z,1.00
2023-03-31T18:39:28.258Z,1.17
2023-03-31T18:41:56.027Z,1.63
2023-03-31T18:44:24.464Z,1.40
2023-03-31T18:46:52.100Z,1.58
2023-03-31T18:49:21.419Z,1.40
2023-03-31T18:51:49.352Z,1.80
2023-03-31T18:54:17.726Z,1.27
2023-03-31T18:56:45.933Z,1.98
2023-03-31T18:59:14.059Z,1.38
2023-03-31T19:01:43.029Z,1.60
2023-03-31T19:04:11.173Z,1.60
2023-03-31T19:06:39.811Z,1.50
2023-03-31T19:09:07.642Z,1.45
2023-03-31T19:11:35.765Z,2.17
2023-03-31T19:14:03.617Z,1.83
2023-03-31T19:16:32.304Z,1.73
2023-03-31T19:19:00.101Z,1.60
2023-03-31T19:21:32.516Z,1.58
2023-03-31T19:24:00.815Z,1.77
2023-03-31T19:26:29.715Z,1.60
2023-03-31T19:28:59.138Z,1.63
2023-03-31T19:31:26.990Z,2.47
2023-03-31T19:33:58.760Z,1.90
2023-03-31T19:36:28.590Z,2.20
2023-03-31T19:38:56.786Z,1.50
2023-03-31T19:41:27.742Z,2.10
2023-03-31T19:43:57.714Z,1.60
2023-03-31T19:46:26.091Z,2.05
2023-03-31T19:48:58.392Z,2.00
2023-03-31T19:51:27.767Z,1.83
2023-03-31T19:53:58.938Z,2.03
2023-03-31T19:56:27.291Z,1.75
2023-03-31T19:58:57.305Z,1.90
2023-03-31T20:01:27.443Z,1.75
2023-03-31T20:03:56.727Z,1.67
2023-03-31T20:06:39.248Z,2.35
2023-03-31T20:09:07.184Z,1.80
2023-03-31T20:11:35.569Z,1.92
2023-03-31T20:14:03.777Z,2.05
2023-03-31T20:16:33.235Z,2.60
2023-03-31T20:19:04.639Z,2.13
2023-03-31T20:21:38.106Z,2.10
2023-03-31T20:24:06.943Z,2.08
2023-03-31T20:26:39.980Z,2.25
2023-03-31T20:29:08.351Z,2.55
2023-03-31T20:31:37.704Z,2.13
2023-03-31T20:34:06.943Z,2.55
2023-03-31T20:36:34.629Z,2.42
2023-03-31T20:39:04.398Z,2.42
2023-03-31T20:41:34.792Z,2.47
2023-03-31T20:44:07.577Z,2.47
2023-03-31T20:46:36.086Z,2.43
2023-03-31T20:49:04.027Z,2.45
2023-03-31T20:51:34.044Z,2.65
2023-03-31T20:54:02.626Z,2.90
2023-03-31T20:56:32.032Z,2.95
2023-03-31T20:59:02.014Z,3.10
2023-03-31T21:01:40.933Z,2.50
2023-03-31T21:04:10.267Z,2.70
2023-03-31T21:06:43.087Z,2.53
2023-03-31T21:09:12.430Z,3.20
2023-03-31T21:11:40.865Z,2.95
2023-03-31T21:14:09.689Z,2.47
2023-03-31T21:16:37.788Z,2.65
2023-03-31T21:19:05.893Z,2.60
2023-03-31T21:21:35.777Z,2.72
2023-03-31T21:24:03.495Z,3.20
2023-03-31T21:26:31.390Z,2.55
2023-03-31T21:29:02.644Z,2.80
2023-03-31T21:31:31.147Z,2.17
2023-03-31T21:34:02.588Z,2.83
2023-03-31T21:36:30.722Z,2.40
2023-03-31T21:38:58.994Z,3.25
2023-03-31T21:41:32.381Z,2.60
2023-03-31T21:44:02.761Z,3.33
2023-03-31T21:46:48.574Z,2.30
2023-03-31T21:49:17.487Z,2.15
2023-03-31T21:51:46.961Z,2.80
2023-03-31T21:54:14.962Z,2.78
2023-03-31T21:56:44.399Z,2.35
2023-03-31T21:59:13.305Z,2.83
2023-03-31T22:01:42.449Z,2.65
2023-03-31T22:04:10.499Z,3.15
2023-03-31T22:06:39.558Z,2.80
2023-03-31T22:09:08.198Z,2.97
2023-03-31T22:11:36.210Z,3.10
2023-03-31T22:14:04.613Z,2.50
2023-03-31T22:16:32.553Z,3.38
2023-03-31T22:19:01.934Z,2.80
2023-03-31T22:21:44.006Z,3.45
2023-03-31T22:24:14.940Z,2.63
2023-03-31T22:26:42.939Z,3.40
2023-03-31T22:29:14.245Z,3.10
2023-03-31T22:31:42.045Z,3.25
2023-03-31T22:34:42.451Z,2.92
2023-03-31T22:37:10.325Z,2.80
2023-03-31T22:39:39.886Z,2.88
2023-03-31T22:42:10.966Z,2.90
2023-03-31T22:44:40.469Z,2.88
2023-03-31T22:47:08.882Z,2.90
2023-03-31T22:49:36.906Z,3.45
2023-03-31T22:52:04.604Z,3.00
2023-03-31T22:54:33.609Z,2.92
2023-03-31T22:57:01.905Z,3.17
2023-03-31T22:59:29.716Z,2.97
2023-03-31T23:01:58.649Z,3.38
2023-03-31T23:04:32.710Z,2.95
2023-03-31T23:07:01.022Z,2.60
2023-03-31T23:09:29.036Z,3.42
2023-03-31T23:12:00.742Z,2.80
2023-03-31T23:14:28.708Z,3.38
2023-03-31T23:16:57.060Z,2.83
2023-03-31T23:19:26.793Z,2.85
2023-03-31T23:21:55.943Z,2.70
2023-03-31T23:24:25.306Z,2.40
2023-03-31T23:26:54.873Z,2.80
2023-03-31T23:29:23.811Z,2.50
2023-03-31T23:31:51.763Z,2.25
2023-03-31T23:34:20.001Z,2.25
2023-03-31T23:36:47.928Z,2.63
2023-03-31T23:39:17.402Z,2.38
2023-03-31T23:41:45.468Z,2.40
2023-03-31T23:44:13.239Z,2.45
2023-03-31T23:46:43.253Z,2.20
2023-03-31T23:49:14.753Z,2.65
2023-03-31T23:51:42.476Z,2.40
2023-03-31T23:54:10.351Z,2.53
2023-03-31T23:56:38.296Z,3.22
2023-03-31T23:59:06.005Z,2.92
